Time;durP1;ratioP1;P1;durP2;ratioP2;P2;SDS_P1;SDS_P2;PMS_P1;PMS_P2;Temp;Humidity;BMP_temperature;BMP_pressure;BME280_temperature;BME280_humidity;BME280_pressure;Samples;Min_cycle;Max_cycle;Signal;HPM_P1;HPM_P2
2022/09/01 00:03:27;;;;;;;4.88;4.38;;;;;;;18.02;84.30;100963.44;8390414;28;20032;-48
2022/09/01 00:07:48;;;;;;;6.00;4.55;;;;;;;18.07;84.13;100958.28;8389633;28;20044;-48
2022/09/01 00:12:08;;;;;;;5.38;4.43;;;;;;;18.00;84.78;100960.03;8391963;28;20082;-48
2022/09/01 00:16:29;;;;;;;5.93;5.18;;;;;;;17.82;85.71;100959.41;8346772;28;20514;-48
2022/09/01 00:20:49;;;;;;;5.85;5.25;;;;;;;17.34;89.59;100962.22;8362005;28;20041;-47
2022/09/01 00:25:12;;;;;;;9.00;6.22;;;;;;;17.25;90.72;100966.00;8357798;28;20387;-48
2022/09/01 00:29:34;;;;;;;7.78;5.93;;;;;;;17.18;91.43;100967.72;8352897;28;20102;-48
2022/09/01 00:33:54;;;;;;;6.38;5.10;;;;;;;17.22;90.09;100966.34;8360461;28;20037;-48
2022/09/01 00:38:14;;;;;;;8.15;5.78;;;;;;;17.28;91.53;100968.38;8359721;28;20048;-48
2022/09/01 00:42:38;;;;;;;7.68;6.00;;;;;;;16.95;92.86;100967.56;8392095;28;20115;-48
2022/09/01 00:46:58;;;;;;;5.07;4.57;;;;;;;17.30;89.17;100960.88;8386805;28;20037;-48
2022/09/01 00:51:19;;;;;;;5.78;5.18;;;;;;;17.40;88.42;100965.13;8387129;28;20040;-49
2022/09/01 00:55:44;;;;;;;3.90;3.60;;;;;;;17.53;85.38;100967.34;8363176;28;20037;-47
2022/09/01 01:00:09;;;;;;;5.63;4.32;;;;;;;17.29;87.90;100956.41;8361866;28;20108;-48
2022/09/01 01:04:29;;;;;;;8.95;4.88;;;;;;;17.13;90.25;100960.03;8355884;28;20060;-47
2022/09/01 01:08:56;;;;;;;5.35;4.85;;;;;;;17.04;91.55;100954.75;8354019;28;20037;-48
2022/09/01 01:13:12;;;;;;;6.28;5.00;;;;;;;17.13;88.42;100950.97;8379582;28;20569;-49
2022/09/01 01:17:31;;;;;;;6.47;5.30;;;;;;;17.40;87.41;100945.13;8370399;28;20067;-47
2022/09/01 01:26:22;;;;;;;5.47;4.93;;;;;;;17.50;87.19;100967.69;8390666;28;20457;-48
2022/09/01 01:30:43;;;;;;;5.22;4.72;;;;;;;17.57;88.18;100964.09;8383940;28;20048;-48
2022/09/01 01:35:04;;;;;;;5.80;5.20;;;;;;;17.38;90.46;100960.84;8386151;28;20032;-49
2022/09/01 01:39:24;;;;;;;6.00;5.40;;;;;;;16.81;95.32;100959.19;8390576;28;20035;-50
2022/09/01 01:43:49;;;;;;;7.10;6.13;;;;;;;16.40;99.67;100960.09;8389917;28;20499;-48
2022/09/01 01:48:12;;;;;;;6.78;6.18;;;;;;;16.49;98.38;100959.13;8390127;28;20110;-48
2022/09/01 01:52:33;;;;;;;6.00;5.30;;;;;;;16.23;99.07;100963.81;8389171;28;20048;-48
2022/09/01 01:56:56;;;;;;;8.15;6.03;;;;;;;16.14;100.00;100967.53;8386873;28;20033;-48
2022/09/01 02:01:15;;;;;;;6.57;5.68;;;;;;;15.96;100.00;100972.25;8385374;28;20048;-50
2022/09/01 02:05:35;;;;;;;6.70;5.53;;;;;;;16.10;98.70;100974.34;8387984;28;20085;-48
2022/09/01 02:09:57;;;;;;;9.88;5.00;;;;;;;16.02;98.24;100966.13;8383473;28;20047;-47
2022/09/01 02:14:20;;;;;;;6.78;6.07;;;;;;;16.18;96.77;100971.63;8384453;28;20426;-48
2022/09/01 02:18:40;;;;;;;7.28;4.68;;;;;;;15.99;96.50;100967.31;8388018;28;20119;-48
2022/09/01 02:23:08;;;;;;;7.72;5.28;;;;;;;16.15;95.46;100971.97;8389076;28;20046;-49
2022/09/01 02:27:24;;;;;;;12.20;5.90;;;;;;;16.36;93.29;100966.94;8385575;28;20056;-54
2022/09/01 02:31:42;;;;;;;8.55;5.70;;;;;;;15.77;96.94;100963.28;8389615;28;20578;-53
2022/09/01 02:36:05;;;;;;;6.85;5.38;;;;;;;15.43;100.00;100973.31;8390349;28;20032;-54
2022/09/01 02:40:30;;;;;;;7.68;5.97;;;;;;;15.65;100.00;100970.03;8389790;28;20032;-55
2022/09/01 02:44:49;;;;;;;7.72;5.43;;;;;;;15.73;99.96;100965.69;8389343;28;20044;-54
2022/09/01 02:49:14;;;;;;;5.45;4.95;;;;;;;15.81;98.09;100963.84;8389236;28;20468;-54
2022/09/01 02:53:33;;;;;;;7.60;6.20;;;;;;;15.89;97.96;100960.28;8388618;28;20048;-52
2022/09/01 02:57:55;;;;;;;7.05;6.35;;;;;;;16.02;97.38;100956.09;8389446;28;20513;-51
2022/09/01 03:02:16;;;;;;;7.05;6.15;;;;;;;15.96;97.61;100955.88;8387674;28;20029;-53
2022/09/01 03:06:36;;;;;;;7.78;6.18;;;;;;;15.54;100.00;100961.28;8387979;28;20040;-50
2022/09/01 03:11:00;;;;;;;11.85;6.30;;;;;;;15.31;100.00;100965.56;8385444;28;20148;-50
2022/09/01 03:15:18;;;;;;;9.00;5.65;;;;;;;15.37;100.00;100965.78;8386479;28;20124;-53
2022/09/01 03:19:41;;;;;;;6.15;5.45;;;;;;;15.43;100.00;100958.84;8388559;28;20048;-51
2022/09/01 03:24:02;;;;;;;6.93;6.22;;;;;;;15.44;100.00;100960.56;8393129;28;20045;-53
2022/09/01 03:28:21;;;;;;;11.63;6.15;;;;;;;15.30;100.00;100964.69;8395276;28;20056;-48
2022/09/01 03:32:42;;;;;;;7.30;5.82;;;;;;;15.35;100.00;100961.50;8392843;28;20040;-47
2022/09/01 03:37:06;;;;;;;10.35;5.50;;;;;;;15.42;100.00;100962.59;8393851;28;20056;-49
2022/09/01 03:41:23;;;;;;;5.97;5.38;;;;;;;15.29;100.00;100959.41;8393768;28;20078;-47
2022/09/01 03:45:42;;;;;;;7.50;5.60;;;;;;;14.88;100.00;100965.56;8394781;28;20090;-48
2022/09/01 03:50:04;;;;;;;6.32;5.75;;;;;;;14.87;100.00;100961.97;8394935;28;20037;-50
2022/09/01 03:54:29;;;;;;;9.88;6.75;;;;;;;14.62;100.00;100968.22;8391544;28;20040;-47
2022/09/01 03:58:46;;;;;;;8.30;6.25;;;;;;;14.68;100.00;100956.72;8393111;28;20489;-50
2022/09/01 04:03:06;;;;;;;13.30;5.72;;;;;;;14.82;100.00;100952.59;8386875;28;20039;-51
2022/09/01 04:07:27;;;;;;;7.70;6.35;;;;;;;14.88;100.00;100952.78;8386428;28;20394;-48
2022/09/01 04:11:50;;;;;;;8.02;5.72;;;;;;;15.09;100.00;100950.59;8391317;28;20094;-48
2022/09/01 04:18:03;;;;;;;9.98;5.72;;;;;;;15.13;100.00;100949.25;8407465;28;20465;-47
2022/09/01 04:20:46;;;;;;;7.60;6.30;;;;;;;15.21;100.00;100948.44;8390758;28;20085;-48
2022/09/01 04:24:55;;;;;;;;;;;;;;;14.67;100.00;100954.16;8396799;28;20040;-47
2022/09/01 04:29:18;;;;;;;6.57;5.95;;;;;;;14.44;100.00;100959.19;8395484;28;19919;-47
2022/09/01 04:33:38;;;;;;;10.38;7.13;;;;;;;14.59;100.00;100957.66;8391871;28;20044;-48
2022/09/01 04:37:59;;;;;;;6.72;5.80;;;;;;;14.53;100.00;100958.25;8390955;28;20048;-50
2022/09/01 04:42:22;;;;;;;10.20;7.22;;;;;;;14.36;100.00;100961.81;8392489;28;20029;-48
2022/09/01 04:46:41;;;;;;;9.07;6.75;;;;;;;14.24;100.00;100967.66;8391663;28;20040;-48
2022/09/01 04:51:00;;;;;;;8.95;7.03;;;;;;;14.24;100.00;100971.19;8391842;28;20036;-48
2022/09/01 04:55:27;;;;;;;9.05;6.90;;;;;;;14.32;100.00;100971.31;8395636;28;20387;-48
2022/09/01 04:59:42;;;;;;;11.80;9.75;;;;;;;14.68;100.00;100969.47;8389745;28;20040;-49
2022/09/01 05:04:04;;;;;;;11.50;9.10;;;;;;;14.35;100.00;100975.56;8394937;28;20048;-48
2022/09/01 05:08:23;;;;;;;13.23;9.25;;;;;;;14.35;100.00;100975.56;8392963;28;20452;-48
2022/09/01 05:12:44;;;;;;;10.57;9.32;;;;;;;14.37;100.00;100966.28;8395239;28;20079;-48
2022/09/01 05:17:09;;;;;;;11.13;9.80;;;;;;;14.17;100.00;100975.50;8385307;28;20048;-50
2022/09/01 05:21:28;;;;;;;11.90;10.07;;;;;;;14.14;100.00;100974.94;8390422;28;20128;-48
2022/09/01 05:25:50;;;;;;;12.43;9.57;;;;;;;14.52;100.00;100978.31;8384693;28;20036;-51
2022/09/01 05:30:09;;;;;;;11.95;10.43;;;;;;;14.61;100.00;100982.81;8389342;28;20044;-50
2022/09/01 05:34:31;;;;;;;15.13;11.45;;;;;;;14.64;100.00;100977.06;8389551;28;20505;-52
2022/09/01 05:38:51;;;;;;;14.25;10.73;;;;;;;14.84;100.00;100977.75;8383184;28;20044;-49
2022/09/01 05:43:11;;;;;;;12.43;10.38;;;;;;;15.07;100.00;100979.81;8377420;28;20581;-49
2022/09/01 05:47:35;;;;;;;13.82;9.63;;;;;;;15.10;100.00;100984.13;8387974;28;20114;-49
2022/09/01 05:51:53;;;;;;;13.30;9.70;;;;;;;15.09;100.00;100990.56;8387195;28;20032;-49
2022/09/01 05:56:12;;;;;;;15.85;10.55;;;;;;;15.40;100.00;100992.72;8387396;28;20044;-52
2022/09/01 06:00:33;;;;;;;17.80;10.32;;;;;;;15.84;98.74;100989.91;8389001;28;20119;-52
2022/09/01 06:04:55;;;;;;;15.30;10.52;;;;;;;16.38;95.52;100989.47;8382829;28;20036;-51
2022/09/01 06:09:17;;;;;;;16.27;10.13;;;;;;;16.70;94.85;100989.53;8387085;28;20072;-54
2022/09/01 06:13:36;;;;;;;14.80;9.43;;;;;;;17.15;92.04;100992.66;8384728;28;20048;-54
2022/09/01 06:17:56;;;;;;;9.75;8.75;;;;;;;17.39;89.18;101003.56;8386952;28;20402;-53
2022/09/01 06:22:16;;;;;;;15.55;9.18;;;;;;;17.61;86.63;100994.69;8376325;28;20033;-52
2022/09/01 06:26:37;;;;;;;12.20;7.68;;;;;;;17.83;86.45;100999.41;8382313;28;20040;-52
2022/09/01 06:30:57;;;;;;;11.77;7.90;;;;;;;17.91;85.63;100999.41;8382761;28;20124;-54
2022/09/01 06:35:18;;;;;;;16.10;8.18;;;;;;;18.19;84.42;101002.53;8386314;28;20032;-53
2022/09/01 06:39:38;;;;;;;17.27;7.95;;;;;;;18.30;84.11;101005.72;8380328;28;20220;-52
2022/09/01 06:44:00;;;;;;;11.27;6.55;;;;;;;18.64;82.81;101011.75;8383914;28;20039;-53
2022/09/01 06:48:21;;;;;;;10.13;7.65;;;;;;;18.87;82.19;101009.88;8385085;28;20094;-53
2022/09/01 06:52:39;;;;;;;16.15;7.15;;;;;;;19.01;81.08;101011.84;8385907;28;20037;-54
2022/09/01 06:57:02;;;;;;;14.00;7.40;;;;;;;19.14;81.27;101006.59;8382725;28;20123;-53
2022/09/01 07:01:20;;;;;;;15.15;7.68;;;;;;;19.53;81.24;101011.91;8389761;28;20383;-53
2022/09/01 07:05:42;;;;;;;10.00;7.32;;;;;;;19.82;78.41;101011.94;8382913;28;20330;-53
2022/09/01 07:10:03;;;;;;;10.18;6.65;;;;;;;19.64;78.50;101007.88;8386562;28;20545;-54
2022/09/01 07:14:23;;;;;;;10.23;6.38;;;;;;;20.17;76.82;101014.00;8390019;28;20401;-53
2022/09/01 07:18:47;;;;;;;9.43;6.40;;;;;;;20.34;75.18;101011.88;8391497;28;21913;-51
2022/09/01 07:23:07;;;;;;;9.18;6.10;;;;;;;20.47;74.51;101014.78;8392543;28;20504;-55
2022/09/01 07:27:29;;;;;;;11.85;6.13;;;;;;;20.46;74.59;101018.59;8391917;28;20028;-55
2022/09/01 07:31:54;;;;;;;10.20;6.40;;;;;;;20.43;74.99;101016.25;8391879;28;20036;-52
2022/09/01 07:36:12;;;;;;;9.35;4.82;;;;;;;20.88;72.06;101004.91;8386344;28;20528;-54
2022/09/01 07:40:36;;;;;;;8.27;4.85;;;;;;;20.98;71.38;101008.25;8386426;28;20120;-54
2022/09/01 07:44:54;;;;;;;6.57;2.97;;;;;;;21.16;69.84;101009.47;8389529;28;20111;-52
2022/09/01 07:49:16;;;;;;;7.13;3.00;;;;;;;21.45;69.44;101008.47;8378569;28;20089;-52
2022/09/01 07:53:38;;;;;;;6.63;1.88;;;;;;;21.70;65.42;101011.63;8387937;28;20069;-54
2022/09/01 07:57:58;;;;;;;4.50;1.45;;;;;;;21.71;63.82;101010.59;8388104;28;20040;-52
2022/09/01 08:02:23;;;;;;;2.50;1.40;;;;;;;21.73;63.69;101022.22;8388589;28;20036;-52
2022/09/01 08:06:42;;;;;;;4.03;1.70;;;;;;;22.08;63.32;101019.31;8385034;28;20037;-52
2022/09/01 08:11:04;;;;;;;3.75;1.77;;;;;;;22.42;63.28;101007.44;8386381;28;20068;-51
2022/09/01 08:15:24;;;;;;;2.60;1.20;;;;;;;22.33;61.74;101004.03;8384759;28;20051;-52
2022/09/01 08:19:45;;;;;;;2.80;1.52;;;;;;;22.48;62.11;101012.13;8388168;28;20041;-48
2022/09/01 08:24:07;;;;;;;3.85;1.60;;;;;;;22.41;61.48;101012.09;8384830;28;20044;-54
2022/09/01 08:28:27;;;;;;;3.28;1.58;;;;;;;22.65;61.17;101007.97;8387121;28;20036;-54
2022/09/01 08:32:48;;;;;;;7.43;1.95;;;;;;;22.64;61.89;101007.13;8389696;28;20081;-54
2022/09/01 08:37:09;;;;;;;6.97;2.08;;;;;;;22.82;60.22;101004.66;8389312;28;20403;-52
2022/09/01 08:41:30;;;;;;;2.53;1.70;;;;;;;22.96;60.21;101011.03;8381726;28;20059;-51
2022/09/01 08:46:03;;;;;;;3.08;1.35;;;;;;;23.29;60.01;101000.09;8388723;28;20496;-51
2022/09/01 08:50:24;;;;;;;2.00;1.38;;;;;;;23.19;59.35;101006.84;8351910;28;20343;-53
2022/09/01 08:54:58;;;;;;;4.55;1.98;;;;;;;23.45;59.44;100994.97;8342376;28;20491;-50
2022/09/01 08:59:18;;;;;;;4.40;1.40;;;;;;;23.49;59.02;100998.19;8353868;28;20033;-52
2022/09/01 09:03:57;;;;;;;5.78;1.55;;;;;;;23.48;58.86;101000.06;8357375;28;20037;-52
2022/09/01 09:08:43;;;;;;;2.20;1.38;;;;;;;23.55;58.57;101005.63;8384284;28;20122;-48
2022/09/01 09:13:43;;;;;;;3.13;1.33;;;;;;;23.59;58.52;101006.88;8370044;28;20041;-49
2022/09/01 09:18:04;;;;;;;3.47;1.58;;;;;;;23.75;57.73;100996.25;8385858;28;20059;-48
2022/09/01 09:22:32;;;;;;;4.22;1.58;;;;;;;23.93;57.39;100993.66;8355235;28;20483;-46
2022/09/01 09:26:53;;;;;;;2.45;1.65;;;;;;;24.05;56.61;100991.13;8353719;28;20025;-48
2022/09/01 09:31:21;;;;;;;5.93;1.92;;;;;;;24.28;56.91;100988.72;8357143;28;20037;-48
2022/09/01 09:35:42;;;;;;;5.13;1.90;;;;;;;25.16;55.61;100974.88;8382856;28;20039;-47
2022/09/01 09:40:13;;;;;;;10.13;1.52;;;;;;;26.67;52.66;100978.69;8369789;28;20040;-49
2022/09/01 09:44:35;;;;;;;2.95;1.17;;;;;;;27.87;48.23;100977.44;8360004;28;20482;-50
2022/09/01 09:48:57;;;;;;;1.35;0.90;;;;;;;28.39;45.76;100966.09;8352811;28;20040;-50
2022/09/01 09:53:18;;;;;;;2.13;0.82;;;;;;;28.76;44.58;100968.56;8353444;28;20063;-47
2022/09/01 09:57:40;;;;;;;5.63;0.80;;;;;;;29.40;43.89;100966.16;8381389;28;20064;-48
2022/09/01 10:02:05;;;;;;;2.30;0.82;;;;;;;29.59;42.72;100956.47;8385351;28;20044;-50
2022/09/01 10:06:45;;;;;;;3.03;0.95;;;;;;;29.42;43.91;100955.63;8353543;28;20040;-51
2022/09/01 10:11:24;;;;;;;2.25;1.02;;;;;;;30.29;42.42;100940.84;8383248;28;20508;-48
2022/09/01 10:15:52;;;;;;;2.25;0.80;;;;;;;30.06;42.52;100946.59;8386970;28;20067;-48
2022/09/01 10:20:15;;;;;;;1.88;0.80;;;;;;;31.07;41.73;100940.34;8385287;28;20037;-47
2022/09/01 10:24:36;;;;;;;2.30;1.00;;;;;;;30.57;41.41;100933.31;8377644;28;20041;-49
2022/09/01 10:29:05;;;;;;;3.50;0.80;;;;;;;30.26;42.98;100940.50;8356738;28;20525;-48
2022/09/01 10:33:33;;;;;;;4.88;0.70;;;;;;;30.03;42.48;100924.81;8359585;28;20037;-49
2022/09/01 10:37:53;;;;;;;1.48;0.90;;;;;;;30.11;42.12;100931.88;8354261;28;20487;-50
2022/09/01 10:42:54;;;;;;;2.13;1.00;;;;;;;30.21;41.94;100921.75;8391530;28;20102;-51
2022/09/01 10:51:38;;;;;;;2.75;0.70;;;;;;;30.70;41.36;100919.81;8293056;28;21270;-49
2022/09/01 10:56:02;;;;;;;4.00;0.90;;;;;;;30.30;41.71;100914.59;8277155;28;20038;-50
2022/09/01 11:04:39;;;;;;;1.90;0.82;;;;;;;31.31;41.07;100901.72;8411528;27;20385;-51
2022/09/01 11:08:58;;;;;;;2.55;0.73;;;;;;;30.65;41.60;100904.94;8405942;28;20075;-51
2022/09/01 11:17:39;;;;;;;3.30;1.00;;;;;;;32.27;40.18;100898.47;8285244;28;20452;-48
2022/09/01 11:22:25;;;;;;;2.42;0.88;;;;;;;32.12;39.77;100895.59;8308616;28;20125;-52
2022/09/01 11:26:47;;;;;;;4.03;1.27;;;;;;;32.28;40.11;100883.34;8312707;28;20124;-51
2022/09/01 11:31:09;;;;;;;1.63;1.00;;;;;;;32.44;38.83;100887.91;8315368;28;20033;-52
2022/09/01 11:35:29;;;;;;;2.35;1.25;;;;;;;30.26;41.40;100874.38;8315601;28;20380;-50
2022/09/01 11:39:56;;;;;;;2.15;1.23;;;;;;;31.23;40.78;100877.91;8316503;28;20038;-48
2022/09/01 11:44:17;;;;;;;5.13;0.80;;;;;;;31.84;39.47;100882.03;8310990;28;20033;-49
2022/09/01 11:48:41;;;;;;;1.73;1.05;;;;;;;32.78;39.05;100880.69;8315450;28;20088;-49
2022/09/01 11:53:04;;;;;;;2.92;1.23;;;;;;;29.25;42.21;100887.06;8300834;28;20172;-52
2022/09/01 11:57:25;;;;;;;3.28;1.27;;;;;;;30.82;41.10;100891.75;8282835;28;20066;-51
2022/09/01 12:01:46;;;;;;;2.03;1.17;;;;;;;29.95;42.30;100883.41;8282168;28;20042;-51
2022/09/01 12:06:31;;;;;;;1.35;1.08;;;;;;;29.71;42.77;100881.97;8281165;28;20064;-51
2022/09/01 12:10:53;;;;;;;4.40;1.48;;;;;;;27.95;44.96;100875.06;8309549;28;20049;-51
2022/09/01 12:15:20;;;;;;;2.08;1.20;;;;;;;28.01;46.21;100856.53;8313414;28;20054;-48
2022/09/01 12:19:50;;;;;;;5.32;1.30;;;;;;;27.71;45.18;100851.13;8313053;28;20586;-51
2022/09/01 12:24:36;;;;;;;2.13;1.40;;;;;;;27.14;45.83;100842.81;8308548;28;20037;-51
2022/09/01 12:28:59;;;;;;;3.40;1.40;;;;;;;27.02;47.38;100834.47;8290351;28;20132;-48
2022/09/01 12:33:20;;;;;;;1.48;1.35;;;;;;;27.61;46.69;100833.38;8290688;28;20607;-48
2022/09/01 12:37:40;;;;;;;3.97;1.70;;;;;;;27.77;46.34;100827.91;8285687;28;20489;-51
2022/09/01 12:42:01;;;;;;;2.15;1.48;;;;;;;27.84;46.45;100830.56;8255257;28;20073;-51
2022/09/01 12:46:46;;;;;;;2.40;1.30;;;;;;;27.29;46.63;100834.88;8254401;28;20042;-50
2022/09/01 12:51:19;;;;;;;5.07;1.55;;;;;;;27.74;46.90;100827.56;8290969;28;20503;-51
2022/09/01 12:55:39;;;;;;;2.45;1.65;;;;;;;27.16;46.90;100829.50;8291159;28;20033;-51
2022/09/01 13:00:18;;;;;;;2.05;1.40;;;;;;;27.45;47.71;100817.47;8290582;28;20045;-52
2022/09/01 13:04:35;;;;;;;2.22;1.60;;;;;;;26.84;47.09;100815.97;8287453;28;20109;-50
2022/09/01 13:08:57;;;;;;;2.05;1.52;;;;;;;26.77;47.61;100815.22;8290388;28;20046;-50
2022/09/01 13:13:20;;;;;;;5.72;2.17;;;;;;;27.29;48.87;100801.53;8289622;28;20353;-50
2022/09/01 13:17:42;;;;;;;1.50;1.40;;;;;;;27.45;47.97;100795.25;8249189;28;20117;-50
2022/09/01 13:22:01;;;;;;;3.10;1.73;;;;;;;27.81;47.66;100784.63;8286707;28;20046;-50
2022/09/01 13:26:23;;;;;;;2.00;1.65;;;;;;;27.66;46.65;100783.50;8278172;28;20052;-48
2022/09/01 13:30:45;;;;;;;1.95;1.50;;;;;;;27.38;46.23;100788.97;8284134;28;20077;-48
2022/09/01 13:35:04;;;;;;;2.97;1.40;;;;;;;27.28;47.21;100777.63;8284591;28;20169;-51
2022/09/01 13:39:24;;;;;;;2.60;1.70;;;;;;;26.80;48.64;100775.91;8279478;28;20038;-50
2022/09/01 13:43:46;;;;;;;4.00;1.70;;;;;;;27.28;48.44;100778.47;8276660;28;20113;-50
2022/09/01 13:48:07;;;;;;;2.63;1.70;;;;;;;27.50;47.69;100770.38;8285047;28;20053;-51
2022/09/01 13:52:28;;;;;;;2.35;1.70;;;;;;;27.36;47.88;100767.00;8283775;28;20041;-50
2022/09/01 13:56:47;;;;;;;3.22;1.48;;;;;;;27.70;46.58;100770.78;8282747;28;20061;-52
2022/09/01 14:01:12;;;;;;;1.67;1.58;;;;;;;27.20;45.68;100769.66;8273071;28;20038;-48
2022/09/01 14:05:32;;;;;;;2.67;2.03;;;;;;;27.19;47.70;100751.28;8274503;28;20038;-52
2022/09/01 14:09:53;;;;;;;5.65;1.80;;;;;;;27.15;47.86;100744.53;8277290;28;20408;-52
2022/09/01 14:14:13;;;;;;;4.55;1.92;;;;;;;26.98;48.28;100749.97;8283007;28;20044;-48
2022/09/01 14:18:35;;;;;;;2.63;1.70;;;;;;;26.95;48.23;100755.19;8287037;28;20042;-49
2022/09/01 14:22:54;;;;;;;2.90;1.85;;;;;;;27.05;48.52;100750.72;8278372;28;20038;-50
2022/09/01 14:27:16;;;;;;;3.13;1.73;;;;;;;27.35;47.91;100750.59;8288467;28;20033;-48
2022/09/01 14:31:36;;;;;;;1.95;1.63;;;;;;;26.90;48.18;100750.34;8283471;28;20070;-50
2022/09/01 14:35:57;;;;;;;2.30;1.73;;;;;;;26.75;47.00;100750.78;8267125;28;20492;-48
2022/09/01 14:40:18;;;;;;;4.57;2.03;;;;;;;26.44;46.62;100759.41;8257583;28;20043;-52
2022/09/01 14:44:37;;;;;;;2.03;1.70;;;;;;;26.43;46.78;100741.09;8260245;28;20121;-51
2022/09/01 14:49:00;;;;;;;4.05;2.20;;;;;;;26.21;47.95;100737.19;8288008;28;20061;-49
2022/09/01 14:53:21;;;;;;;3.10;2.15;;;;;;;26.11;48.56;100747.16;8287315;28;20399;-48
2022/09/01 14:57:40;;;;;;;4.47;2.08;;;;;;;26.50;48.65;100730.72;8287461;28;20056;-52
2022/09/01 15:02:00;;;;;;;2.65;2.28;;;;;;;26.53;48.97;100730.25;8263904;28;20065;-48
2022/09/01 15:06:22;;;;;;;2.78;1.83;;;;;;;26.53;49.21;100729.41;8284296;28;20030;-48
2022/09/01 15:10:42;;;;;;;3.28;2.20;;;;;;;26.67;48.77;100726.19;8280756;28;20041;-49
2022/09/01 15:15:03;;;;;;;3.10;2.30;;;;;;;26.70;48.75;100720.16;8270702;28;20044;-49
2022/09/01 15:19:23;;;;;;;3.45;1.85;;;;;;;26.66;49.03;100707.03;8279342;28;20044;-51
2022/09/01 15:23:43;;;;;;;4.55;1.90;;;;;;;26.54;48.99;100709.75;8284286;28;20507;-51
2022/09/01 15:28:04;;;;;;;7.93;1.95;;;;;;;26.38;48.34;100704.88;8277273;28;20546;-51
2022/09/01 15:32:26;;;;;;;3.28;2.03;;;;;;;26.28;48.56;100692.69;8254171;28;20049;-48
2022/09/01 15:36:46;;;;;;;3.88;2.10;;;;;;;26.47;48.85;100708.19;8255736;28;20394;-48
2022/09/01 15:41:08;;;;;;;2.92;2.03;;;;;;;26.54;48.03;100701.44;8287130;28;20129;-50
2022/09/01 15:45:29;;;;;;;1.90;1.70;;;;;;;26.48;47.84;100699.63;8278038;28;20035;-50
2022/09/01 15:49:49;;;;;;;3.08;1.50;;;;;;;26.37;48.15;100697.66;8277633;28;20533;-49
2022/09/01 15:54:09;;;;;;;4.63;2.00;;;;;;;26.45;48.20;100686.22;8284092;28;20046;-51
2022/09/01 15:58:29;;;;;;;3.80;2.05;;;;;;;26.39;48.12;100695.50;8283310;28;20257;-51
2022/09/01 16:02:49;;;;;;;5.22;2.08;;;;;;;26.26;48.45;100687.38;8276900;28;20142;-52
2022/09/01 16:07:10;;;;;;;4.85;1.90;;;;;;;26.43;48.27;100685.63;8269688;28;20052;-49
2022/09/01 16:11:31;;;;;;;1.52;1.42;;;;;;;26.36;48.02;100684.91;8266539;28;20149;-51
2022/09/01 16:15:53;;;;;;;3.17;2.10;;;;;;;26.38;47.98;100676.34;8242233;28;20042;-49
2022/09/01 16:24:37;;;;;;;2.92;1.88;;;;;;;26.31;47.80;100676.44;8381137;27;20408;-47
2022/09/01 16:29:11;;;;;;;2.67;1.63;;;;;;;26.34;45.50;100680.66;8363985;28;20395;-51
2022/09/01 16:33:32;;;;;;;1.95;1.50;;;;;;;26.32;45.15;100667.03;8353569;28;20417;-48
2022/09/01 16:38:10;;;;;;;4.05;1.75;;;;;;;26.28;45.21;100671.38;8347923;28;20047;-48
2022/09/01 16:42:54;;;;;;;3.15;1.60;;;;;;;26.29;45.20;100672.22;8331714;28;20061;-48
2022/09/01 16:52:12;;;;;;;1.80;1.65;;;;;;;26.21;46.18;100659.56;8349322;27;20406;-48
2022/09/01 16:57:11;;;;;;;4.78;2.05;;;;;;;26.08;46.44;100665.31;8348462;28;20119;-48
2022/09/01 17:01:47;;;;;;;4.03;2.63;;;;;;;26.00;46.63;100657.34;8349215;28;20400;-50
2022/09/01 17:06:18;;;;;;;4.78;2.00;;;;;;;25.80;47.15;100651.22;8338528;28;20085;-55
2022/09/01 17:10:43;;;;;;;7.07;2.20;;;;;;;25.80;46.94;100651.22;8342597;28;20404;-52
2022/09/01 17:15:08;;;;;;;1.83;1.65;;;;;;;25.80;46.58;100645.66;8341283;28;20072;-52
2022/09/01 17:19:36;;;;;;;2.47;1.92;;;;;;;25.75;47.14;100644.69;8337571;28;20414;-51
2022/09/01 17:23:58;;;;;;;1.85;1.50;;;;;;;25.66;47.15;100644.19;8346580;28;20120;-52
2022/09/01 17:28:27;;;;;;;3.05;1.70;;;;;;;25.52;47.56;100659.31;8342284;28;20366;-51
2022/09/01 17:33:14;;;;;;;2.40;1.60;;;;;;;25.40;47.92;100655.63;8346106;28;20124;-53
2022/09/01 17:38:03;;;;;;;2.10;1.55;;;;;;;25.20;48.75;100649.50;8335072;28;20037;-54
2022/09/01 17:42:44;;;;;;;2.40;1.45;;;;;;;25.08;48.75;100648.56;8344387;28;20033;-52
2022/09/01 17:47:18;;;;;;;2.08;1.60;;;;;;;24.85;49.21;100652.03;8340830;28;20033;-51
2022/09/01 17:51:53;;;;;;;1.80;1.42;;;;;;;24.71;49.55;100649.66;8345429;28;20041;-52
2022/09/01 17:56:52;;;;;;;4.15;1.58;;;;;;;24.57;50.04;100653.56;8342129;28;20071;-53
2022/09/01 18:01:39;;;;;;;2.97;1.65;;;;;;;24.41;50.42;100654.16;8329792;28;20435;-51
2022/09/01 18:06:18;;;;;;;3.70;1.95;;;;;;;24.28;50.92;100659.81;8319321;28;20515;-53
2022/09/01 18:10:44;;;;;;;7.07;1.90;;;;;;;24.17;51.00;100655.00;8315714;28;20136;-52
2022/09/01 18:15:16;;;;;;;3.65;1.85;;;;;;;24.05;51.51;100665.09;8319220;28;20392;-54
2022/09/01 18:19:41;;;;;;;5.38;2.17;;;;;;;23.92;51.77;100654.13;8315277;28;20045;-54
2022/09/01 18:24:08;;;;;;;4.65;1.90;;;;;;;23.72;53.11;100662.53;8322767;28;20048;-52
2022/09/01 18:28:30;;;;;;;2.92;1.77;;;;;;;23.51;53.66;100662.88;8311214;28;20457;-54
2022/09/01 18:37:52;;;;;;;3.90;2.30;;;;;;;23.13;56.32;100665.59;8300840;28;20390;-52
2022/09/01 18:42:22;;;;;;;;;;;;;;;22.50;59.42;100663.63;8294152;28;20050;-49
2022/09/01 18:46:51;;;;;;;3.65;2.08;;;;;;;21.81;61.22;100673.34;8307718;28;19925;-49
2022/09/01 18:51:27;;;;;;;5.78;1.98;;;;;;;21.54;63.99;100671.56;8297601;28;20037;-52
2022/09/01 18:56:02;;;;;;;4.13;3.55;;;;;;;21.12;65.01;100677.31;8294003;28;20111;-52
2022/09/01 19:01:03;;;;;;;3.50;2.08;;;;;;;21.44;62.41;100671.13;8307158;28;20054;-52
2022/09/01 19:05:33;;;;;;;3.67;1.98;;;;;;;21.60;59.74;100681.75;8303147;28;20045;-52
2022/09/01 19:10:06;;;;;;;2.30;1.75;;;;;;;21.42;60.61;100678.72;8285719;28;20065;-52
2022/09/01 19:19:18;;;;;;;3.08;2.13;;;;;;;21.53;59.81;100682.78;8409195;27;20469;-52
2022/09/01 19:23:46;;;;;;;3.65;2.05;;;;;;;21.60;61.20;100676.22;8377134;28;20501;-52
2022/09/01 19:28:12;;;;;;;3.63;2.13;;;;;;;20.62;64.43;100691.38;8385336;28;20041;-51
2022/09/01 19:32:37;;;;;;;8.77;1.92;;;;;;;20.80;63.82;100699.97;8369951;28;20033;-51
2022/09/01 19:37:04;;;;;;;4.97;2.65;;;;;;;20.97;63.39;100693.09;8355218;28;20041;-51
2022/09/01 19:41:31;;;;;;;5.13;2.05;;;;;;;20.85;62.46;100697.44;8352601;28;20041;-55
2022/09/01 19:46:27;;;;;;;8.90;2.55;;;;;;;20.89;61.22;100704.25;8351776;28;20490;-53
2022/09/01 19:50:58;;;;;;;5.32;2.92;;;;;;;20.59;65.62;100698.13;8358178;28;20064;-54
2022/09/01 19:55:29;;;;;;;3.75;2.70;;;;;;;19.73;70.10;100693.97;8376473;28;20041;-54
2022/09/01 20:00:08;;;;;;;3.38;2.45;;;;;;;19.95;68.82;100698.41;8375626;28;20072;-53
2022/09/01 20:04:38;;;;;;;5.07;2.35;;;;;;;19.38;70.95;100702.00;8378539;28;20449;-50
2022/09/01 20:09:05;;;;;;;5.68;2.95;;;;;;;19.72;67.93;100697.72;8369528;28;20509;-53
2022/09/01 20:13:33;;;;;;;5.18;2.35;;;;;;;19.91;67.46;100702.59;8348252;28;20044;-50
2022/09/01 20:18:01;;;;;;;3.60;2.42;;;;;;;19.66;67.50;100698.50;8349341;28;20128;-53
2022/09/01 20:22:21;;;;;;;5.25;2.45;;;;;;;19.65;68.83;100696.81;8348154;28;20180;-53
2022/09/01 20:26:47;;;;;;;3.40;2.50;;;;;;;19.64;69.75;100695.94;8346940;28;20590;-52
2022/09/01 20:31:15;;;;;;;5.75;2.70;;;;;;;19.58;68.57;100696.75;8324648;28;20064;-53
2022/09/01 20:35:43;;;;;;;5.22;2.60;;;;;;;19.57;68.48;100699.69;8337673;28;20045;-53
2022/09/01 20:40:18;;;;;;;4.50;2.25;;;;;;;19.70;66.57;100697.09;8322204;28;20061;-52
2022/09/01 20:44:43;;;;;;;6.50;2.45;;;;;;;19.78;66.71;100699.69;8329575;28;20121;-53
2022/09/01 20:49:08;;;;;;;4.10;2.30;;;;;;;19.70;68.21;100697.91;8309203;28;20634;-50
2022/09/01 20:53:43;;;;;;;6.15;2.40;;;;;;;19.81;66.54;100702.91;8311460;28;20037;-50
2022/09/01 20:58:23;;;;;;;7.40;2.38;;;;;;;20.02;65.65;100693.81;8314114;28;20041;-49
2022/09/01 21:03:24;;;;;;;6.40;2.97;;;;;;;19.98;65.92;100703.50;8329601;28;20037;-52